createdAt,value
2023-05-06T00:01:36.581Z,10.42
2023-05-06T00:04:03.382Z,10.49
2023-05-06T00:06:30.159Z,10.50
2023-05-06T00:08:56.681Z,10.53
2023-05-06T00:11:23.169Z,10.55
2023-05-06T00:13:49.649Z,10.51
2023-05-06T00:16:16.956Z,10.44
2023-05-06T00:18:43.621Z,10.36
2023-05-06T00:21:10.116Z,10.33
2023-05-06T00:23:36.653Z,10.36
2023-05-06T00:26:03.231Z,10.30
2023-05-06T00:28:29.712Z,10.29
2023-05-06T00:30:56.284Z,10.35
2023-05-06T00:33:22.803Z,10.39
2023-05-06T00:35:49.322Z,10.41
2023-05-06T00:38:17.068Z,10.34
2023-05-06T00:40:43.695Z,10.32
2023-05-06T00:43:10.177Z,10.41
2023-05-06T00:45:36.967Z,10.47
2023-05-06T00:48:05.334Z,10.50
2023-05-06T00:50:33.328Z,10.48
2023-05-06T00:53:02.297Z,10.43
2023-05-06T00:55:29.929Z,10.39
2023-05-06T00:57:57.563Z,10.45
2023-05-06T01:00:24.081Z,10.45
2023-05-06T01:02:50.702Z,10.47
2023-05-06T01:05:19.075Z,10.41
2023-05-06T01:07:55.246Z,10.42
2023-05-06T01:10:36.696Z,10.45
2023-05-06T01:13:12.341Z,10.48
2023-05-06T01:15:45.910Z,10.54
2023-05-06T01:18:17.276Z,10.60
2023-05-06T01:20:53.463Z,10.60
2023-05-06T01:23:20.270Z,10.60
2023-05-06T01:25:46.827Z,10.54
2023-05-06T01:28:13.808Z,10.44
2023-05-06T01:30:52.408Z,10.38
2023-05-06T01:33:36.895Z,10.35
2023-05-06T01:36:23.165Z,10.21
2023-05-06T01:39:02.980Z,10.11
2023-05-06T01:41:31.709Z,10.03
2023-05-06T01:44:00.468Z,9.98
2023-05-06T01:46:29.553Z,9.89
2023-05-06T01:48:58.093Z,9.89
2023-05-06T01:51:25.169Z,9.82
2023-05-06T01:53:51.780Z,9.85
2023-05-06T01:56:18.278Z,9.99
2023-05-06T01:58:44.758Z,10.11
2023-05-06T02:01:11.403Z,10.36
2023-05-06T02:03:38.109Z,10.50
2023-05-06T02:06:05.039Z,10.51
2023-05-06T02:08:31.548Z,10.49
2023-05-06T02:10:58.163Z,10.41
2023-05-06T02:13:24.694Z,10.33
2023-05-06T02:15:54.874Z,10.37
2023-05-06T02:18:21.827Z,10.37
2023-05-06T02:20:48.427Z,10.38
2023-05-06T02:23:15.177Z,10.40
2023-05-06T02:25:41.676Z,10.43
2023-05-06T02:28:08.239Z,10.37
2023-05-06T02:30:35.335Z,10.25
2023-05-06T02:33:01.969Z,10.12
2023-05-06T02:35:28.571Z,9.97
2023-05-06T02:37:55.046Z,9.86
2023-05-06T02:40:21.624Z,9.77
2023-05-06T02:42:48.280Z,9.71
2023-05-06T02:45:14.821Z,9.62
2023-05-06T02:47:41.392Z,9.53
2023-05-06T02:50:08.168Z,9.45
2023-05-06T02:52:35.079Z,9.38
2023-05-06T02:55:01.996Z,9.30
2023-05-06T02:57:28.641Z,9.27
2023-05-06T02:59:55.188Z,9.20
2023-05-06T03:02:21.886Z,9.16
2023-05-06T03:04:48.483Z,9.14
2023-05-06T03:07:15.042Z,9.07
2023-05-06T03:09:41.507Z,9.04
2023-05-06T03:12:08.041Z,9.01
2023-05-06T03:14:34.660Z,8.96
2023-05-06T03:17:01.123Z,8.93
2023-05-06T03:19:27.819Z,8.86
2023-05-06T03:21:54.376Z,8.86
2023-05-06T03:24:20.876Z,8.80
2023-05-06T03:26:47.345Z,8.83
2023-05-06T03:29:13.788Z,8.84
2023-05-06T03:31:40.397Z,8.84
2023-05-06T03:34:07.004Z,8.85
2023-05-06T03:36:33.737Z,8.84
2023-05-06T03:39:00.351Z,8.87
2023-05-06T03:41:26.854Z,8.88
2023-05-06T03:43:55.626Z,8.89
2023-05-06T03:46:22.446Z,8.96
2023-05-06T03:48:48.978Z,9.08
2023-05-06T03:51:15.680Z,9.17
2023-05-06T03:53:42.326Z,9.17
2023-05-06T03:56:08.847Z,9.19
2023-05-06T03:58:35.880Z,9.08
2023-05-06T04:01:02.487Z,9.05
2023-05-06T04:03:29.170Z,9.01
2023-05-06T04:05:55.732Z,8.99
2023-05-06T04:08:22.270Z,8.98
2023-05-06T04:10:48.794Z,8.99
2023-05-06T04:13:15.450Z,8.98
2023-05-06T04:15:42.613Z,8.96
2023-05-06T04:18:09.193Z,8.99
2023-05-06T04:20:36.068Z,8.97
2023-05-06T04:23:05.622Z,8.97
2023-05-06T04:25:32.870Z,9.04
2023-05-06T04:27:59.428Z,9.08
2023-05-06T04:30:25.996Z,9.12
2023-05-06T04:32:52.693Z,9.25
2023-05-06T04:35:19.555Z,9.31
2023-05-06T04:37:46.110Z,9.31
2023-05-06T04:40:13.865Z,9.39
2023-05-06T04:42:40.458Z,9.48
2023-05-06T04:45:07.816Z,9.48
2023-05-06T04:47:34.454Z,9.48
2023-05-06T04:50:01.014Z,9.54
2023-05-06T04:52:27.550Z,9.63
2023-05-06T04:54:54.016Z,9.71
2023-05-06T04:57:20.574Z,9.79
2023-05-06T04:59:47.067Z,9.84
2023-05-06T05:02:13.624Z,9.79
2023-05-06T05:04:40.844Z,9.72
2023-05-06T05:07:07.686Z,9.64
2023-05-06T05:09:35.438Z,9.61
2023-05-06T05:12:03.026Z,9.75
2023-05-06T05:14:29.715Z,9.88
2023-05-06T05:16:56.300Z,9.93
2023-05-06T05:19:22.913Z,10.05
2023-05-06T05:21:49.750Z,10.19
2023-05-06T05:24:16.334Z,10.45
2023-05-06T05:26:42.859Z,10.74
2023-05-06T05:29:09.421Z,11.11
2023-05-06T05:31:35.920Z,11.46
2023-05-06T05:34:02.511Z,11.90
2023-05-06T05:36:29.104Z,12.42
2023-05-06T05:38:55.697Z,12.91
2023-05-06T05:41:22.127Z,13.22
2023-05-06T05:43:48.615Z,13.28
2023-05-06T05:46:15.484Z,13.31
2023-05-06T05:48:42.139Z,13.37
2023-05-06T05:51:08.742Z,13.58
2023-05-06T05:53:35.572Z,13.61
2023-05-06T05:56:02.058Z,13.68
2023-05-06T05:58:28.586Z,13.83
2023-05-06T06:00:55.082Z,13.90
2023-05-06T06:03:21.879Z,13.87
2023-05-06T06:05:49.386Z,13.66
2023-05-06T06:08:18.296Z,13.53
2023-05-06T06:10:44.810Z,13.34
2023-05-06T06:13:11.303Z,13.30
2023-05-06T06:15:37.929Z,13.32
2023-05-06T06:18:04.722Z,13.49
2023-05-06T06:20:31.705Z,13.99
2023-05-06T06:22:58.180Z,14.58
2023-05-06T06:25:24.684Z,15.16
2023-05-06T06:27:51.464Z,15.85
2023-05-06T06:30:18.044Z,16.26
2023-05-06T06:32:49.511Z,16.42
2023-05-06T06:35:16.376Z,16.50
2023-05-06T06:37:43.192Z,16.44
2023-05-06T06:40:11.367Z,16.65
2023-05-06T06:42:38.065Z,17.03
2023-05-06T06:45:05.329Z,17.47
2023-05-06T06:47:31.912Z,17.02
2023-05-06T06:49:58.585Z,17.41
2023-05-06T06:52:25.139Z,17.79
2023-05-06T06:54:51.763Z,18.32
2023-05-06T06:57:18.870Z,18.75
2023-05-06T06:59:45.451Z,19.07
2023-05-06T07:02:12.054Z,19.37
2023-05-06T07:04:38.788Z,19.39
2023-05-06T07:07:05.349Z,18.86
2023-05-06T07:09:33.377Z,18.61
2023-05-06T07:12:01.852Z,18.79
2023-05-06T07:14:28.346Z,18.95
2023-05-06T07:16:54.936Z,18.95
2023-05-06T07:19:21.905Z,19.17
2023-05-06T07:21:48.722Z,19.36
2023-05-06T07:24:15.261Z,18.99
2023-05-06T07:26:41.832Z,18.73
2023-05-06T07:29:08.340Z,18.93
2023-05-06T07:31:34.923Z,19.10
2023-05-06T07:34:01.553Z,19.39
2023-05-06T07:36:28.979Z,19.64
2023-05-06T07:38:55.525Z,19.96
2023-05-06T07:41:22.161Z,19.92
2023-05-06T07:43:48.643Z,19.99
2023-05-06T07:46:15.346Z,19.83
2023-05-06T07:48:42.127Z,20.00
2023-05-06T07:51:08.673Z,20.16
2023-05-06T07:53:36.052Z,20.36
2023-05-06T07:56:03.947Z,20.46
2023-05-06T07:58:31.959Z,20.33
2023-05-06T08:01:00.004Z,20.86
2023-05-06T08:03:26.834Z,21.14
2023-05-06T08:05:55.201Z,21.15
2023-05-06T08:08:23.805Z,21.57
2023-05-06T08:10:50.425Z,21.63
2023-05-06T08:13:17.161Z,22.59
2023-05-06T08:15:43.933Z,22.49
2023-05-06T08:18:21.915Z,22.88
2023-05-06T08:20:49.333Z,22.67
2023-05-06T08:23:16.025Z,21.89
2023-05-06T08:25:42.843Z,21.92
2023-05-06T08:28:09.447Z,21.78
2023-05-06T08:30:36.700Z,20.82
2023-05-06T08:33:03.643Z,20.70
2023-05-06T08:35:30.197Z,20.54
2023-05-06T08:37:56.776Z,20.25
2023-05-06T08:40:24.076Z,20.11
2023-05-06T08:42:50.985Z,19.65
2023-05-06T08:45:18.125Z,19.86
2023-05-06T08:47:44.859Z,19.95
2023-05-06T08:50:11.803Z,19.86
2023-05-06T08:52:39.769Z,19.88
2023-05-06T08:55:07.388Z,19.77
2023-05-06T08:57:34.689Z,20.06
2023-05-06T09:00:02.508Z,20.02
2023-05-06T09:02:29.249Z,19.79
2023-05-06T09:04:59.577Z,19.67
2023-05-06T09:07:26.349Z,19.62
2023-05-06T09:09:52.927Z,19.55
2023-05-06T09:12:19.886Z,19.64
2023-05-06T09:14:51.132Z,19.36
2023-05-06T09:17:24.432Z,19.58
2023-05-06T09:19:53.239Z,19.69
2023-05-06T09:22:23.953Z,19.91
2023-05-06T09:24:56.700Z,20.25
2023-05-06T09:27:28.224Z,20.61
2023-05-06T09:30:06.864Z,20.74
2023-05-06T09:32:35.234Z,20.50
2023-05-06T09:35:03.132Z,20.39
2023-05-06T09:37:29.681Z,20.24
2023-05-06T09:39:58.889Z,19.80
2023-05-06T09:42:28.102Z,20.29
2023-05-06T09:44:57.360Z,20.55
2023-05-06T09:47:26.347Z,20.69
2023-05-06T09:50:01.450Z,20.88
2023-05-06T09:52:29.057Z,20.66
2023-05-06T09:54:55.998Z,20.83
2023-05-06T09:57:23.290Z,20.99
2023-05-06T09:59:52.254Z,21.01
2023-05-06T10:02:19.908Z,21.29
2023-05-06T10:04:49.341Z,21.66
2023-05-06T10:07:19.748Z,22.33
2023-05-06T10:09:48.915Z,22.76
2023-05-06T10:12:16.612Z,22.77
2023-05-06T10:14:43.289Z,22.45
2023-05-06T10:17:11.762Z,22.37
2023-05-06T10:19:42.510Z,21.83
2023-05-06T10:22:34.638Z,21.85
2023-05-06T10:25:31.892Z,21.96
2023-05-06T10:27:59.942Z,21.69
2023-05-06T10:30:28.659Z,21.57
2023-05-06T10:32:59.600Z,21.49
2023-05-06T10:35:44.613Z,21.45
2023-05-06T10:38:23.462Z,21.34
2023-05-06T10:40:51.343Z,21.17
2023-05-06T10:43:26.356Z,21.34
2023-05-06T10:46:00.849Z,21.16
2023-05-06T10:48:28.922Z,21.19
2023-05-06T10:51:13.820Z,21.43
2023-05-06T10:54:09.464Z,21.80
2023-05-06T10:57:00.024Z,21.91
2023-05-06T10:59:29.999Z,22.23
2023-05-06T11:02:08.841Z,21.98
2023-05-06T11:04:35.525Z,22.30
2023-05-06T11:07:13.640Z,22.08
2023-05-06T11:10:00.630Z,22.49
2023-05-06T11:12:47.526Z,22.51
2023-05-06T11:15:23.874Z,22.44
2023-05-06T11:17:50.621Z,22.39
2023-05-06T11:20:21.465Z,22.41
2023-05-06T11:22:48.031Z,22.53
2023-05-06T11:25:14.598Z,22.84
2023-05-06T11:27:41.955Z,23.09
2023-05-06T11:30:14.110Z,23.15
2023-05-06T11:32:43.385Z,23.27
2023-05-06T11:35:11.589Z,23.02
2023-05-06T11:37:38.283Z,23.05
2023-05-06T11:40:14.096Z,23.47
2023-05-06T11:42:40.968Z,23.82
2023-05-06T11:45:08.284Z,24.15
2023-05-06T11:47:34.889Z,24.20
2023-05-06T11:50:07.542Z,24.00
2023-05-06T11:52:35.653Z,24.10
2023-05-06T11:55:02.192Z,23.67
2023-05-06T11:57:29.794Z,23.34
2023-05-06T11:59:56.530Z,23.28
2023-05-06T12:02:23.170Z,23.28
2023-05-06T12:04:53.259Z,23.72
2023-05-06T12:07:20.068Z,23.91
2023-05-06T12:09:49.162Z,23.59
2023-05-06T12:12:19.158Z,23.65
2023-05-06T12:14:47.628Z,23.93
2023-05-06T12:17:14.861Z,23.68
2023-05-06T12:19:41.460Z,23.62
2023-05-06T12:22:20.061Z,23.41
2023-05-06T12:24:48.418Z,23.13
2023-05-06T12:27:28.556Z,22.82
2023-05-06T12:29:55.219Z,22.69
2023-05-06T12:32:22.131Z,22.62
2023-05-06T12:34:48.874Z,22.28
2023-05-06T12:37:29.271Z,22.19
2023-05-06T12:39:58.710Z,22.28
2023-05-06T12:42:26.312Z,22.35
2023-05-06T12:44:52.831Z,22.31
2023-05-06T12:47:24.841Z,22.32
2023-05-06T12:49:58.182Z,22.30
2023-05-06T12:52:27.596Z,22.17
2023-05-06T12:54:54.360Z,22.13
2023-05-06T12:57:21.656Z,22.15
2023-05-06T12:59:49.062Z,22.15
2023-05-06T13:02:16.164Z,22.27
2023-05-06T13:04:43.281Z,22.30
2023-05-06T13:07:10.137Z,22.38
2023-05-06T13:09:36.649Z,22.31
2023-05-06T13:12:05.124Z,22.11
2023-05-06T13:14:31.642Z,21.82
2023-05-06T13:17:01.401Z,21.64
2023-05-06T13:19:32.811Z,21.41
2023-05-06T13:22:00.834Z,20.96
2023-05-06T13:24:27.794Z,20.59
2023-05-06T13:26:56.081Z,20.06
2023-05-06T13:29:23.740Z,19.39
2023-05-06T13:31:51.067Z,18.60
2023-05-06T13:34:17.767Z,17.91
2023-05-06T13:36:44.291Z,17.45
2023-05-06T13:39:11.039Z,17.07
2023-05-06T13:41:37.578Z,16.82
2023-05-06T13:44:04.183Z,16.50
2023-05-06T13:46:31.405Z,16.46
2023-05-06T13:48:57.978Z,16.48
2023-05-06T13:51:27.720Z,16.57
2023-05-06T13:53:54.294Z,16.67
2023-05-06T13:56:21.715Z,16.73
2023-05-06T13:58:48.234Z,16.76
2023-05-06T14:01:15.194Z,16.82
2023-05-06T14:03:41.754Z,16.79
2023-05-06T14:06:08.763Z,16.78
2023-05-06T14:08:35.309Z,16.80
2023-05-06T14:11:01.940Z,16.79
2023-05-06T14:13:30.795Z,16.74
2023-05-06T14:15:57.509Z,16.60
2023-05-06T14:18:26.525Z,16.55
2023-05-06T14:20:53.751Z,16.56
2023-05-06T14:23:20.568Z,16.56
2023-05-06T14:25:47.285Z,16.42
2023-05-06T14:28:14.396Z,16.28
2023-05-06T14:30:41.212Z,16.14
2023-05-06T14:33:09.550Z,16.13
2023-05-06T14:35:36.138Z,16.06
2023-05-06T14:38:03.245Z,15.96
2023-05-06T14:40:30.202Z,15.88
2023-05-06T14:42:56.717Z,15.78
2023-05-06T14:45:23.334Z,15.61
2023-05-06T14:47:49.951Z,15.47
2023-05-06T14:50:16.595Z,15.33
2023-05-06T14:52:43.179Z,15.29
2023-05-06T14:55:11.269Z,15.29
2023-05-06T14:57:37.981Z,15.35
2023-05-06T15:00:08.968Z,15.40
2023-05-06T15:02:37.134Z,15.46
2023-05-06T15:05:04.391Z,15.54
2023-05-06T15:07:31.024Z,15.63
2023-05-06T15:09:57.635Z,15.68
2023-05-06T15:12:24.145Z,15.74
2023-05-06T15:14:50.807Z,15.87
2023-05-06T15:17:17.950Z,15.87
2023-05-06T15:19:44.475Z,15.86
2023-05-06T15:22:11.222Z,15.82
2023-05-06T15:24:37.951Z,15.81
2023-05-06T15:27:04.519Z,15.80
2023-05-06T15:29:31.253Z,15.70
2023-05-06T15:31:57.767Z,15.67
2023-05-06T15:34:24.619Z,15.61
2023-05-06T15:36:53.499Z,15.58
2023-05-06T15:39:20.296Z,15.59
2023-05-06T15:41:46.944Z,15.73
2023-05-06T15:46:42.622Z,16.02
2023-05-06T15:49:39.482Z,16.15
2023-05-06T15:51:58.976Z,16.24
2023-05-06T15:54:27.289Z,16.33
2023-05-06T15:56:53.833Z,16.44
2023-05-06T15:59:20.428Z,16.45
2023-05-06T16:04:16.628Z,16.58
2023-05-06T16:06:43.250Z,16.46
2023-05-06T16:09:10.497Z,16.46
2023-05-06T16:11:36.946Z,16.57
2023-05-06T16:14:04.114Z,16.63
2023-05-06T16:16:30.801Z,16.62
2023-05-06T16:18:57.420Z,16.67
2023-05-06T16:21:24.253Z,16.72
2023-05-06T16:23:50.788Z,16.72
2023-05-06T16:26:17.749Z,16.69
2023-05-06T16:28:44.367Z,16.67
2023-05-06T16:31:11.104Z,16.72
2023-05-06T16:33:37.765Z,16.68
2023-05-06T16:36:04.770Z,16.72
2023-05-06T16:38:31.262Z,16.66
2023-05-06T16:40:58.193Z,16.56
2023-05-06T16:43:24.803Z,16.49
2023-05-06T16:45:51.694Z,16.49
2023-05-06T16:48:18.455Z,16.56
2023-05-06T16:50:45.214Z,16.58
2023-05-06T16:53:11.935Z,16.57
2023-05-06T16:55:38.641Z,16.60
2023-05-06T16:58:05.274Z,16.63
2023-05-06T17:00:32.141Z,16.56
2023-05-06T17:02:59.095Z,16.51
2023-05-06T17:05:28.048Z,16.45
2023-05-06T17:07:54.598Z,16.41
2023-05-06T17:10:22.261Z,16.38
2023-05-06T17:12:48.878Z,16.42
2023-05-06T17:15:16.213Z,16.32
2023-05-06T17:17:42.863Z,16.28
2023-05-06T17:20:10.276Z,16.31
2023-05-06T17:22:37.448Z,16.27
2023-05-06T17:25:04.263Z,16.26
2023-05-06T17:27:30.828Z,16.20
2023-05-06T17:29:58.785Z,16.16
2023-05-06T17:32:27.018Z,16.18
2023-05-06T17:34:53.582Z,16.13
2023-05-06T17:37:20.237Z,16.04
2023-05-06T17:39:47.497Z,16.03
2023-05-06T17:42:14.187Z,15.99
2023-05-06T17:44:42.547Z,16.00
2023-05-06T17:47:10.313Z,15.89
2023-05-06T17:49:36.948Z,15.79
2023-05-06T17:52:03.707Z,15.74
2023-05-06T17:54:34.759Z,15.69
2023-05-06T17:57:03.551Z,15.62
2023-05-06T17:59:30.082Z,15.50
2023-05-06T18:01:56.732Z,15.49
2023-05-06T18:04:23.404Z,15.51
2023-05-06T18:06:49.924Z,15.55
2023-05-06T18:09:16.445Z,15.54
2023-05-06T18:11:44.016Z,15.62
2023-05-06T18:14:11.216Z,15.57
2023-05-06T18:16:37.921Z,15.53
2023-05-06T18:19:05.229Z,15.58
2023-05-06T18:21:33.998Z,15.60
2023-05-06T18:24:10.082Z,15.66
2023-05-06T18:26:45.385Z,15.66
2023-05-06T18:29:12.821Z,15.61
2023-05-06T18:31:39.493Z,15.60
2023-05-06T18:34:06.237Z,15.55
2023-05-06T18:36:33.709Z,15.50
2023-05-06T18:39:01.290Z,15.44
2023-05-06T18:41:28.045Z,15.41
2023-05-06T18:43:54.574Z,15.37
2023-05-06T18:46:21.642Z,15.35
2023-05-06T18:48:48.476Z,15.29
2023-05-06T18:51:17.764Z,15.24
2023-05-06T18:53:44.854Z,15.12
2023-05-06T18:56:11.659Z,15.01
2023-05-06T18:58:39.377Z,14.93
2023-05-06T19:01:10.769Z,14.87
2023-05-06T19:03:38.576Z,14.76
2023-05-06T19:06:09.126Z,14.73
2023-05-06T19:08:37.728Z,14.69
2023-05-06T19:11:04.611Z,14.66
2023-05-06T19:13:31.598Z,14.72
2023-05-06T19:15:58.318Z,14.71
2023-05-06T19:18:24.883Z,14.66
2023-05-06T19:20:52.390Z,14.62
2023-05-06T19:23:20.146Z,14.59
2023-05-06T19:25:46.777Z,14.56
2023-05-06T19:28:13.352Z,14.54
2023-05-06T19:30:40.030Z,14.53
2023-05-06T19:33:06.934Z,14.50
2023-05-06T19:35:33.694Z,14.47
2023-05-06T19:38:00.361Z,14.42
2023-05-06T19:40:26.888Z,14.30
2023-05-06T19:42:53.937Z,14.25
2023-05-06T19:45:20.887Z,14.16
2023-05-06T19:47:47.534Z,14.08
2023-05-06T19:50:14.235Z,13.99
2023-05-06T19:52:40.849Z,13.91
2023-05-06T19:55:07.960Z,13.85
2023-05-06T19:57:34.482Z,13.86
2023-05-06T20:00:05.401Z,13.89
2023-05-06T20:02:33.010Z,13.90
2023-05-06T20:05:00.601Z,13.96
2023-05-06T20:07:27.392Z,14.01
2023-05-06T20:09:55.986Z,14.02
2023-05-06T20:12:23.634Z,14.04
2023-05-06T20:14:50.372Z,14.07
2023-05-06T20:17:17.091Z,14.11
2023-05-06T20:19:45.055Z,14.10
2023-05-06T20:22:11.865Z,14.10
2023-05-06T20:24:40.876Z,14.10
2023-05-06T20:27:07.458Z,14.12
2023-05-06T20:29:34.136Z,14.12
2023-05-06T20:32:01.349Z,14.14
2023-05-06T20:34:27.910Z,14.17
2023-05-06T20:36:56.256Z,14.19
2023-05-06T20:39:23.799Z,14.18
2023-05-06T20:41:50.306Z,14.21
2023-05-06T20:44:17.003Z,14.23
2023-05-06T20:46:44.178Z,14.26
2023-05-06T20:49:10.831Z,14.27
2023-05-06T20:51:37.569Z,14.24
2023-05-06T20:54:04.320Z,14.23
2023-05-06T20:56:30.858Z,14.22
2023-05-06T20:58:57.541Z,14.20
2023-05-06T21:01:25.555Z,14.17
2023-05-06T21:03:52.466Z,14.14
2023-05-06T21:06:19.575Z,14.16
2023-05-06T21:08:47.135Z,14.12
2023-05-06T21:11:14.115Z,14.08
2023-05-06T21:13:41.940Z,14.08
2023-05-06T21:16:08.864Z,14.06
2023-05-06T21:18:35.919Z,14.02
2023-05-06T21:21:02.798Z,14.04
2023-05-06T21:23:29.409Z,14.07
2023-05-06T21:25:55.960Z,14.04
2023-05-06T21:28:22.650Z,14.01
2023-05-06T21:30:49.253Z,14.03
2023-05-06T21:33:15.806Z,13.99
2023-05-06T21:35:42.354Z,13.94
2023-05-06T21:38:08.875Z,13.95
2023-05-06T21:40:35.552Z,13.99
2023-05-06T21:43:02.829Z,13.96
2023-05-06T21:45:29.375Z,13.95
2023-05-06T21:47:55.937Z,13.94
2023-05-06T21:50:22.857Z,13.96
2023-05-06T21:52:49.419Z,13.96
2023-05-06T21:55:15.948Z,13.94
2023-05-06T21:57:43.887Z,14.00
2023-05-06T22:00:12.417Z,13.98
2023-05-06T22:02:40.015Z,13.99
2023-05-06T22:05:08.416Z,14.01
2023-05-06T22:07:36.035Z,14.02
2023-05-06T22:10:03.521Z,14.03
2023-05-06T22:12:31.379Z,14.03
2023-05-06T22:14:57.990Z,14.05
2023-05-06T22:17:24.695Z,14.05
2023-05-06T22:19:51.603Z,14.06
2023-05-06T22:22:18.758Z,14.07
2023-05-06T22:24:45.455Z,14.06
2023-05-06T22:27:11.990Z,14.05
2023-05-06T22:29:38.679Z,14.04
2023-05-06T22:32:06.099Z,14.05
2023-05-06T22:34:33.217Z,14.05
2023-05-06T22:37:00.988Z,14.04
2023-05-06T22:39:27.940Z,14.03
2023-05-06T22:41:54.620Z,13.99
2023-05-06T22:44:21.372Z,13.97
2023-05-06T22:46:48.024Z,13.93
2023-05-06T22:49:16.074Z,13.93
2023-05-06T22:51:42.681Z,13.92
2023-05-06T22:54:09.289Z,13.93
2023-05-06T22:56:36.117Z,13.95
2023-05-06T22:59:02.749Z,13.94
2023-05-06T23:01:32.768Z,13.93
2023-05-06T23:03:59.751Z,13.90
2023-05-06T23:06:29.369Z,13.87
2023-05-06T23:08:56.257Z,13.84
2023-05-06T23:11:23.060Z,13.85
2023-05-06T23:13:49.600Z,13.84
2023-05-06T23:16:16.274Z,13.81
2023-05-06T23:18:42.940Z,13.80
2023-05-06T23:21:09.484Z,13.79
2023-05-06T23:23:36.033Z,13.77
2023-05-06T23:26:02.620Z,13.74
2023-05-06T23:28:29.713Z,13.74
2023-05-06T23:30:56.416Z,13.72
2023-05-06T23:33:23.067Z,13.68
2023-05-06T23:35:49.790Z,13.63
2023-05-06T23:38:16.385Z,13.61
2023-05-06T23:40:42.891Z,13.60
2023-05-06T23:43:11.331Z,13.60
2023-05-06T23:45:38.076Z,13.62
2023-05-06T23:48:05.216Z,13.60
2023-05-06T23:50:31.893Z,13.58
2023-05-06T23:52:58.475Z,13.58
2023-05-06T23:55:26.419Z,13.53
2023-05-06T23:57:53.051Z,13.52
